createdAt,value
2019-05-21T00:01:37.546Z,14.51
2019-05-21T00:04:09.512Z,14.53
2019-05-21T00:06:41.862Z,14.54
2019-05-21T00:09:13.832Z,14.57
2019-05-21T00:11:45.866Z,14.63
2019-05-21T00:14:17.814Z,14.66
2019-05-21T00:16:50.076Z,14.66
2019-05-21T00:19:22.032Z,14.69
2019-05-21T00:21:54.398Z,14.71
2019-05-21T00:24:26.375Z,14.75
2019-05-21T00:26:58.510Z,14.77
2019-05-21T00:30:24.320Z,14.85
2019-05-21T00:33:49.696Z,14.89
2019-05-21T00:37:19.930Z,14.97
2019-05-21T00:40:45.564Z,15.03
2019-05-21T00:43:18.980Z,15.09
2019-05-21T00:45:51.620Z,15.09
2019-05-21T00:48:23.562Z,15.00
2019-05-21T00:50:55.540Z,14.91
2019-05-21T00:53:27.632Z,14.83
2019-05-21T00:55:59.990Z,14.72
2019-05-21T00:58:32.074Z,14.64
2019-05-21T01:01:04.146Z,14.60
2019-05-21T01:03:36.114Z,14.60
2019-05-21T01:06:08.130Z,14.67
2019-05-21T01:08:40.492Z,14.67
2019-05-21T01:11:12.454Z,14.63
2019-05-21T01:13:44.425Z,14.69
2019-05-21T01:16:16.408Z,14.75
2019-05-21T01:18:48.373Z,14.71
2019-05-21T01:21:20.354Z,14.74
2019-05-21T01:23:52.308Z,14.77
2019-05-21T01:26:24.283Z,14.82
2019-05-21T01:28:56.221Z,14.90
2019-05-21T01:31:28.189Z,14.93
2019-05-21T01:34:00.408Z,14.98
2019-05-21T01:36:32.373Z,14.98
2019-05-21T01:39:05.483Z,14.93
2019-05-21T01:41:37.860Z,14.86
2019-05-21T01:44:09.812Z,14.94
2019-05-21T01:46:41.762Z,15.00
2019-05-21T01:49:13.784Z,15.03
2019-05-21T01:51:45.750Z,14.95
2019-05-21T01:54:17.780Z,14.91
2019-05-21T01:56:50.288Z,14.90
2019-05-21T01:59:22.277Z,14.95
2019-05-21T02:01:54.277Z,14.95
2019-05-21T02:04:26.226Z,14.89
2019-05-21T02:06:58.314Z,14.93
2019-05-21T02:09:32.196Z,14.89
2019-05-21T02:12:04.159Z,14.83
2019-05-21T02:14:36.134Z,14.80
2019-05-21T02:17:08.077Z,14.85
2019-05-21T02:19:40.302Z,14.85
2019-05-21T02:22:12.333Z,14.81
2019-05-21T02:24:44.264Z,14.77
2019-05-21T02:27:16.246Z,14.74
2019-05-21T02:29:48.174Z,14.74
2019-05-21T02:32:20.141Z,14.68
2019-05-21T02:34:52.087Z,14.63
2019-05-21T02:37:24.085Z,14.66
2019-05-21T02:39:56.109Z,14.67
2019-05-21T02:42:28.292Z,14.71
2019-05-21T02:45:00.238Z,14.73
2019-05-21T02:47:32.183Z,14.70
2019-05-21T02:50:04.140Z,14.70
2019-05-21T02:52:36.155Z,14.67
2019-05-21T02:55:08.560Z,14.64
2019-05-21T02:57:41.937Z,14.60
2019-05-21T03:00:38.411Z,14.56
2019-05-21T03:03:08.452Z,14.51
2019-05-21T03:05:40.620Z,14.41
2019-05-21T03:08:12.552Z,14.31
2019-05-21T03:10:44.493Z,14.24
2019-05-21T03:13:16.474Z,14.19
2019-05-21T03:15:48.430Z,14.19
2019-05-21T03:18:20.798Z,14.18
2019-05-21T03:20:52.768Z,14.19
2019-05-21T03:23:25.004Z,14.23
2019-05-21T03:25:56.957Z,14.27
2019-05-21T03:28:28.901Z,14.34
2019-05-21T03:31:01.273Z,14.44
2019-05-21T03:33:33.257Z,14.55
2019-05-21T03:36:05.213Z,14.66
2019-05-21T03:38:37.198Z,14.87
2019-05-21T03:41:09.168Z,15.04
2019-05-21T03:43:41.159Z,15.11
2019-05-21T03:46:13.119Z,15.21
2019-05-21T03:48:45.075Z,15.32
2019-05-21T03:51:17.116Z,15.48
2019-05-21T03:53:49.126Z,15.63
2019-05-21T03:56:21.219Z,15.78
2019-05-21T03:58:53.189Z,15.92
2019-05-21T04:01:25.200Z,16.06
2019-05-21T04:03:57.205Z,16.19
2019-05-21T04:06:29.167Z,16.35
2019-05-21T04:09:01.256Z,16.52
2019-05-21T04:11:33.229Z,16.65
2019-05-21T04:14:05.256Z,16.79
2019-05-21T04:16:45.291Z,16.93
2019-05-21T04:19:21.072Z,17.09
2019-05-21T04:21:56.088Z,17.27
2019-05-21T04:24:28.074Z,17.50
2019-05-21T04:27:00.309Z,17.74
2019-05-21T04:29:32.653Z,17.97
2019-05-21T04:32:04.603Z,18.20
2019-05-21T04:34:36.634Z,18.35
2019-05-21T04:37:11.361Z,18.49
2019-05-21T04:39:42.324Z,18.63
2019-05-21T04:42:14.313Z,18.69
2019-05-21T04:44:46.351Z,18.76
2019-05-21T04:47:18.334Z,18.79
2019-05-21T04:49:50.270Z,18.87
2019-05-21T04:52:22.258Z,18.94
2019-05-21T04:54:54.224Z,19.01
2019-05-21T04:57:26.168Z,19.12
2019-05-21T04:59:58.121Z,19.33
2019-05-21T05:02:30.357Z,19.64
2019-05-21T05:05:02.328Z,19.93
2019-05-21T05:07:34.266Z,20.17
2019-05-21T05:10:07.108Z,20.45
2019-05-21T05:12:39.074Z,20.72
2019-05-21T05:15:11.318Z,20.91
2019-05-21T05:17:43.314Z,21.09
2019-05-21T05:20:15.404Z,21.22
2019-05-21T05:22:47.463Z,21.35
2019-05-21T05:25:19.900Z,21.64
2019-05-21T05:27:51.964Z,22.80
2019-05-21T05:30:23.966Z,24.01
2019-05-21T05:32:55.951Z,23.45
2019-05-21T05:35:27.949Z,23.09
2019-05-21T05:40:30.550Z,22.92
2019-05-21T05:43:02.507Z,23.13
2019-05-21T05:45:34.476Z,23.54
2019-05-21T05:48:06.549Z,24.09
2019-05-21T05:50:40.572Z,24.66
2019-05-21T05:53:13.483Z,25.03
2019-05-21T05:55:45.545Z,25.26
2019-05-21T05:58:17.550Z,25.42
2019-05-21T06:00:50.025Z,25.35
2019-05-21T06:03:22.127Z,25.20
2019-05-21T06:05:54.316Z,25.13
2019-05-21T06:08:26.320Z,25.09
2019-05-21T06:10:58.329Z,25.12
2019-05-21T06:13:30.293Z,25.05
2019-05-21T06:16:02.304Z,24.86
2019-05-21T06:18:35.654Z,24.63
2019-05-21T06:21:07.967Z,24.40
2019-05-21T06:23:39.928Z,24.32
2019-05-21T06:26:11.893Z,24.33
2019-05-21T06:28:43.923Z,24.36
2019-05-21T06:31:15.917Z,24.27
2019-05-21T06:33:47.924Z,24.21
2019-05-21T06:36:20.245Z,24.20
2019-05-21T06:38:52.221Z,24.25
2019-05-21T06:41:24.254Z,24.28
2019-05-21T06:44:02.215Z,24.31
2019-05-21T06:46:34.203Z,24.35
2019-05-21T06:49:06.144Z,24.42
2019-05-21T06:51:38.160Z,24.69
2019-05-21T06:54:10.174Z,24.82
2019-05-21T06:56:42.218Z,24.83
2019-05-21T06:59:14.162Z,24.75
2019-05-21T07:01:46.149Z,24.55
2019-05-21T07:04:18.144Z,24.38
2019-05-21T07:06:50.425Z,24.27
2019-05-21T07:09:22.370Z,24.16
2019-05-21T07:11:54.348Z,24.06
2019-05-21T07:14:26.341Z,23.94
2019-05-21T07:16:58.311Z,23.83
2019-05-21T07:19:30.259Z,23.77
2019-05-21T07:22:11.996Z,23.65
2019-05-21T07:24:35.987Z,23.44
2019-05-21T07:27:07.986Z,23.32
2019-05-21T07:29:40.206Z,23.17
2019-05-21T07:32:12.182Z,23.01
2019-05-21T07:34:44.339Z,22.88
2019-05-21T07:37:16.580Z,22.74
2019-05-21T07:39:48.539Z,22.64
2019-05-21T07:42:20.526Z,22.56
2019-05-21T07:44:52.622Z,22.52
2019-05-21T07:47:24.659Z,22.53
2019-05-21T07:49:56.595Z,22.59
2019-05-21T07:52:28.627Z,22.72
2019-05-21T07:55:00.849Z,22.89
2019-05-21T07:57:32.827Z,23.10
2019-05-21T08:00:05.453Z,23.37
2019-05-21T08:02:37.489Z,23.65
2019-05-21T08:05:09.555Z,23.90
2019-05-21T08:07:41.510Z,24.37
2019-05-21T08:10:13.594Z,25.00
2019-05-21T08:12:45.590Z,25.57
2019-05-21T08:15:17.527Z,26.14
2019-05-21T08:17:49.566Z,26.42
2019-05-21T08:20:23.544Z,26.70
2019-05-21T08:22:55.544Z,27.00
2019-05-21T08:25:27.511Z,27.16
2019-05-21T08:27:59.501Z,27.38
2019-05-21T08:30:31.473Z,27.53
2019-05-21T08:33:03.520Z,27.55
2019-05-21T08:35:38.324Z,27.45
2019-05-21T08:38:10.317Z,27.35
2019-05-21T08:40:42.233Z,27.22
2019-05-21T08:43:14.252Z,27.16
2019-05-21T08:45:46.339Z,27.28
2019-05-21T08:48:18.316Z,27.40
2019-05-21T08:50:50.698Z,27.53
2019-05-21T08:53:22.751Z,27.79
2019-05-21T08:55:54.732Z,28.01
2019-05-21T08:58:26.717Z,28.27
2019-05-21T09:00:58.686Z,28.59
2019-05-21T09:03:30.623Z,28.97
2019-05-21T09:06:02.613Z,29.46
2019-05-21T09:08:34.609Z,30.09
2019-05-21T09:11:06.578Z,30.85
2019-05-21T09:13:38.576Z,31.51
2019-05-21T09:16:10.951Z,32.61
2019-05-21T09:18:42.932Z,32.55
2019-05-21T09:21:14.976Z,32.38
2019-05-21T09:23:46.910Z,32.21
2019-05-21T09:26:18.954Z,32.06
2019-05-21T09:28:51.546Z,31.57
2019-05-21T09:31:23.527Z,31.15
2019-05-21T09:33:55.510Z,30.72
2019-05-21T09:36:28.161Z,30.27
2019-05-21T09:39:00.492Z,30.05
2019-05-21T09:41:32.494Z,30.02
2019-05-21T09:44:04.592Z,30.14
2019-05-21T09:46:36.707Z,30.25
2019-05-21T09:49:08.740Z,30.40
2019-05-21T09:51:40.697Z,30.74
2019-05-21T09:54:12.701Z,31.55
2019-05-21T09:56:44.678Z,32.40
2019-05-21T09:59:35.530Z,33.63
2019-05-21T10:02:17.103Z,34.72
2019-05-21T10:04:49.160Z,35.53
2019-05-21T10:07:38.221Z,35.99
2019-05-21T10:09:54.982Z,36.40
2019-05-21T10:12:26.932Z,36.74
2019-05-21T10:14:58.973Z,37.09
2019-05-21T10:17:30.991Z,37.79
2019-05-21T10:20:03.045Z,38.96
2019-05-21T10:22:35.050Z,40.51
2019-05-21T10:25:07.711Z,41.36
2019-05-21T10:27:39.749Z,43.33
2019-05-21T10:30:13.295Z,45.66
2019-05-21T10:32:45.280Z,49.27
2019-05-21T10:35:17.398Z,51.17
2019-05-21T10:37:54.862Z,50.85
2019-05-21T10:40:23.368Z,53.87
2019-05-21T10:42:55.350Z,52.38
2019-05-21T10:49:27.464Z,52.55
2019-05-21T10:51:59.434Z,50.46
2019-05-21T10:54:31.441Z,47.44
2019-05-21T10:57:03.414Z,45.48
2019-05-21T10:59:35.402Z,45.00
2019-05-21T11:02:23.443Z,46.60
2019-05-21T11:05:05.598Z,49.16
2019-05-21T11:07:37.586Z,49.16
2019-05-21T11:10:10.335Z,48.31
2019-05-21T11:12:42.390Z,47.19
2019-05-21T11:15:14.907Z,45.72
2019-05-21T11:17:59.145Z,44.12
2019-05-21T11:20:21.499Z,42.50
2019-05-21T11:22:53.539Z,40.54
2019-05-21T11:25:25.506Z,38.75
2019-05-21T11:27:57.501Z,37.82
2019-05-21T11:30:29.536Z,37.33
2019-05-21T11:33:01.497Z,36.74
2019-05-21T11:35:35.968Z,35.52
2019-05-21T11:38:07.129Z,34.03
2019-05-21T11:40:39.069Z,32.82
2019-05-21T11:43:11.184Z,32.37
2019-05-21T11:45:43.676Z,32.07
2019-05-21T11:48:15.748Z,31.67
2019-05-21T11:50:47.708Z,31.14
2019-05-21T11:53:19.654Z,30.70
2019-05-21T11:55:51.610Z,30.43
2019-05-21T11:58:23.652Z,30.19
2019-05-21T12:00:55.700Z,30.07
2019-05-21T12:03:27.679Z,29.70
2019-05-21T12:05:59.711Z,29.14
2019-05-21T12:08:31.670Z,28.56
2019-05-21T12:11:03.630Z,28.30
2019-05-21T12:13:35.647Z,28.40
2019-05-21T12:16:07.626Z,28.64
2019-05-21T12:18:40.275Z,29.00
2019-05-21T12:21:12.330Z,29.24
2019-05-21T12:23:44.365Z,29.44
2019-05-21T12:26:16.356Z,29.40
2019-05-21T12:28:48.374Z,29.16
2019-05-21T12:31:20.631Z,28.84
2019-05-21T12:33:52.694Z,28.39
2019-05-21T12:36:24.806Z,28.00
2019-05-21T12:39:11.638Z,27.72
2019-05-21T12:41:30.855Z,27.33
2019-05-21T12:44:02.855Z,26.86
2019-05-21T12:46:34.858Z,26.45
2019-05-21T12:49:06.836Z,26.07
2019-05-21T12:51:38.914Z,25.75
2019-05-21T12:54:10.896Z,25.52
2019-05-21T12:56:42.876Z,25.50
2019-05-21T12:59:14.893Z,25.43
2019-05-21T13:01:46.846Z,25.36
2019-05-21T13:04:18.864Z,25.14
2019-05-21T13:06:51.264Z,24.84
2019-05-21T13:09:32.167Z,24.48
2019-05-21T13:11:57.043Z,24.20
2019-05-21T13:14:29.011Z,23.94
2019-05-21T13:17:01.256Z,23.72
2019-05-21T13:19:33.230Z,23.46
2019-05-21T13:22:05.393Z,23.19
2019-05-21T13:24:37.393Z,22.88
2019-05-21T13:27:09.444Z,22.66
2019-05-21T13:29:41.398Z,22.58
2019-05-21T13:32:13.448Z,22.49
2019-05-21T13:34:45.763Z,22.53
2019-05-21T13:37:17.752Z,22.61
2019-05-21T13:39:50.684Z,22.72
2019-05-21T13:42:23.025Z,22.84
2019-05-21T13:44:55.170Z,23.09
2019-05-21T13:47:27.175Z,23.30
2019-05-21T13:49:59.366Z,23.43
2019-05-21T13:52:31.478Z,23.58
2019-05-21T13:55:03.525Z,23.75
2019-05-21T13:57:35.582Z,23.85
2019-05-21T14:00:13.702Z,23.88
2019-05-21T14:02:46.044Z,23.97
2019-05-21T14:05:18.172Z,24.06
2019-05-21T14:07:50.156Z,24.26
2019-05-21T14:10:22.184Z,24.82
2019-05-21T14:12:54.206Z,25.53
2019-05-21T14:15:26.182Z,26.08
2019-05-21T14:17:58.125Z,26.21
2019-05-21T14:20:30.371Z,26.26
2019-05-21T14:23:02.396Z,26.32
2019-05-21T14:25:34.603Z,26.39
2019-05-21T14:28:06.774Z,26.60
2019-05-21T14:30:38.830Z,26.89
2019-05-21T14:33:11.091Z,27.16
2019-05-21T14:35:43.094Z,27.32
2019-05-21T14:38:15.061Z,27.35
2019-05-21T14:40:47.060Z,27.43
2019-05-21T14:43:19.105Z,27.45
2019-05-21T14:45:51.282Z,27.26
2019-05-21T14:48:23.242Z,27.14
2019-05-21T14:50:55.293Z,27.03
2019-05-21T14:53:27.352Z,26.85
2019-05-21T14:55:59.293Z,26.74
2019-05-21T14:58:31.427Z,26.56
2019-05-21T15:01:03.554Z,26.21
2019-05-21T15:03:35.626Z,25.78
2019-05-21T15:06:07.584Z,25.36
2019-05-21T15:08:40.191Z,24.94
2019-05-21T15:11:12.216Z,24.48
2019-05-21T15:13:44.183Z,24.17
2019-05-21T15:16:16.148Z,23.89
2019-05-21T15:18:48.338Z,23.72
2019-05-21T15:21:26.052Z,23.53
2019-05-21T15:23:58.128Z,23.29
2019-05-21T15:26:30.338Z,22.98
2019-05-21T15:29:02.441Z,22.79
2019-05-21T15:31:34.402Z,22.67
2019-05-21T15:34:06.464Z,22.52
2019-05-21T15:36:38.425Z,22.46
2019-05-21T15:39:10.755Z,22.41
2019-05-21T15:41:42.678Z,22.33
2019-05-21T15:44:14.854Z,22.25
2019-05-21T15:46:50.138Z,22.20
2019-05-21T15:49:34.963Z,22.08
2019-05-21T15:51:54.667Z,21.93
2019-05-21T15:54:26.931Z,21.85
2019-05-21T15:56:58.868Z,21.79
2019-05-21T15:59:31.282Z,21.76
2019-05-21T16:02:03.546Z,21.65
2019-05-21T16:04:35.613Z,21.51
2019-05-21T16:07:07.548Z,21.37
2019-05-21T16:09:39.872Z,21.24
2019-05-21T16:12:11.998Z,21.16
2019-05-21T16:14:45.933Z,21.05
2019-05-21T16:17:18.485Z,20.99
2019-05-21T16:19:50.804Z,20.93
2019-05-21T16:22:24.651Z,20.91
2019-05-21T16:24:56.703Z,20.84
2019-05-21T16:27:28.705Z,20.68
2019-05-21T16:30:01.467Z,20.58
2019-05-21T16:32:33.625Z,20.47
2019-05-21T16:35:05.802Z,20.40
2019-05-21T16:37:37.965Z,20.34
2019-05-21T16:40:10.975Z,20.19
2019-05-21T16:42:44.930Z,20.04
2019-05-21T16:45:17.263Z,19.89
2019-05-21T16:47:49.488Z,19.76
2019-05-21T16:50:21.576Z,19.63
2019-05-21T16:52:53.641Z,19.60
2019-05-21T16:55:25.697Z,19.51
2019-05-21T16:57:57.665Z,19.45
2019-05-21T17:00:30.261Z,19.41
2019-05-21T17:03:03.394Z,19.42
2019-05-21T17:05:35.395Z,19.44
2019-05-21T17:08:07.440Z,19.44
2019-05-21T17:10:39.416Z,19.38
2019-05-21T17:13:11.379Z,19.31
2019-05-21T17:15:43.472Z,19.22
2019-05-21T17:18:15.487Z,19.15
2019-05-21T17:20:47.547Z,19.04
2019-05-21T17:23:20.018Z,18.91
2019-05-21T17:25:52.126Z,18.76
2019-05-21T17:28:24.121Z,18.64
2019-05-21T17:30:56.112Z,18.59
2019-05-21T17:33:28.091Z,18.50
2019-05-21T17:36:00.079Z,18.46
2019-05-21T17:38:32.066Z,18.39
2019-05-21T17:41:03.999Z,18.37
2019-05-21T17:43:36.054Z,18.31
2019-05-21T17:46:08.033Z,18.29
2019-05-21T17:48:40.618Z,18.27
2019-05-21T17:51:12.579Z,18.22
2019-05-21T17:53:44.586Z,18.18
2019-05-21T17:56:16.559Z,18.15
2019-05-21T17:58:48.649Z,18.13
2019-05-21T18:01:21.436Z,18.08
2019-05-21T18:03:54.119Z,18.03
2019-05-21T18:06:26.502Z,17.98
2019-05-21T18:08:58.670Z,17.96
2019-05-21T18:11:30.723Z,17.89
2019-05-21T18:14:02.991Z,17.80
2019-05-21T18:16:35.389Z,17.71
2019-05-21T18:19:08.646Z,17.64
2019-05-21T18:21:41.453Z,17.47
2019-05-21T18:24:13.484Z,17.31
2019-05-21T18:26:45.792Z,17.15
2019-05-21T18:29:17.779Z,16.97
2019-05-21T18:31:50.051Z,16.85
2019-05-21T18:34:22.167Z,16.71
2019-05-21T18:36:54.526Z,16.54
2019-05-21T18:39:26.558Z,16.39
2019-05-21T18:41:58.525Z,16.29
2019-05-21T18:44:31.004Z,16.17
2019-05-21T18:47:03.029Z,16.07
2019-05-21T18:49:35.081Z,16.04
2019-05-21T18:52:07.114Z,15.98
2019-05-21T18:54:39.096Z,15.94
2019-05-21T18:57:11.280Z,15.87
2019-05-21T18:59:43.739Z,15.77
2019-05-21T19:02:16.305Z,15.67
2019-05-21T19:04:48.376Z,15.63
2019-05-21T19:07:20.899Z,15.59
2019-05-21T19:09:52.871Z,15.60
2019-05-21T19:12:36.960Z,15.59
2019-05-21T19:14:58.709Z,15.58
2019-05-21T19:17:35.507Z,15.57
2019-05-21T19:20:06.780Z,15.55
2019-05-21T19:22:38.822Z,15.49
2019-05-21T19:25:10.909Z,15.37
2019-05-21T19:27:43.046Z,15.37
2019-05-21T19:30:15.508Z,15.31
2019-05-21T19:32:47.662Z,15.24
2019-05-21T19:35:20.141Z,15.24
2019-05-21T19:37:52.133Z,15.25
2019-05-21T19:40:24.086Z,15.28
2019-05-21T19:42:56.202Z,15.27
2019-05-21T19:45:31.311Z,15.24
2019-05-21T19:48:01.992Z,15.27
2019-05-21T19:50:34.331Z,15.26
2019-05-21T19:53:06.304Z,15.31
2019-05-21T19:55:38.993Z,15.30
2019-05-21T19:58:11.071Z,15.35
2019-05-21T20:00:49.694Z,15.40
2019-05-21T20:03:22.554Z,15.36
2019-05-21T20:05:55.419Z,15.35
2019-05-21T20:08:28.577Z,15.35
2019-05-21T20:11:01.054Z,15.33
2019-05-21T20:13:33.106Z,15.31
2019-05-21T20:16:06.191Z,15.21
2019-05-21T20:18:38.151Z,15.27
2019-05-21T20:21:11.133Z,15.34
2019-05-21T20:23:44.197Z,15.40
2019-05-21T20:26:19.655Z,15.52
2019-05-21T20:28:52.023Z,15.50
2019-05-21T20:31:25.248Z,15.43
2019-05-21T20:33:57.298Z,15.48
2019-05-21T20:36:29.974Z,15.56
2019-05-21T20:39:02.373Z,15.53
2019-05-21T20:41:34.378Z,15.55
2019-05-21T20:44:08.590Z,15.53
2019-05-21T20:46:41.552Z,15.58
2019-05-21T20:49:13.544Z,15.55
2019-05-21T20:51:45.978Z,15.49
2019-05-21T20:54:19.620Z,15.50
2019-05-21T20:56:52.016Z,15.53
2019-05-21T20:59:23.981Z,15.52
2019-05-21T21:01:57.305Z,15.58
2019-05-21T21:04:30.687Z,15.62
2019-05-21T21:07:03.389Z,15.67
2019-05-21T21:09:36.392Z,15.68
2019-05-21T21:12:09.762Z,15.70
2019-05-21T21:14:43.504Z,15.73
2019-05-21T21:17:17.191Z,15.70
2019-05-21T21:19:49.156Z,15.72
2019-05-21T21:22:21.270Z,15.71
2019-05-21T21:24:53.828Z,15.71
2019-05-21T21:27:26.278Z,15.70
2019-05-21T21:29:58.229Z,15.70
2019-05-21T21:32:30.903Z,15.69
2019-05-21T21:35:03.281Z,15.70
2019-05-21T21:37:35.408Z,15.67
2019-05-21T21:40:10.290Z,15.64
2019-05-21T21:42:42.794Z,15.61
2019-05-21T21:45:15.777Z,15.64
2019-05-21T21:47:47.718Z,15.67
2019-05-21T21:50:20.113Z,15.63
2019-05-21T21:52:52.065Z,15.68
2019-05-21T21:55:24.180Z,15.66
2019-05-21T21:57:56.157Z,15.66
2019-05-21T22:01:29.152Z,15.62
2019-05-21T22:04:04.688Z,15.66
2019-05-21T22:06:39.348Z,15.55
2019-05-21T22:09:24.610Z,15.44
2019-05-21T22:11:57.436Z,15.28
2019-05-21T22:14:30.099Z,15.17
2019-05-21T22:17:02.260Z,15.11
2019-05-21T22:19:34.880Z,15.09
2019-05-21T22:22:07.485Z,15.08
2019-05-21T22:24:39.744Z,15.03
2019-05-21T22:27:11.716Z,15.01
2019-05-21T22:29:43.867Z,14.89
2019-05-21T22:32:16.822Z,14.82
2019-05-21T22:34:48.877Z,14.80
2019-05-21T22:37:23.719Z,14.74
2019-05-21T22:39:55.758Z,14.74
2019-05-21T22:42:28.304Z,14.69
2019-05-21T22:45:08.068Z,14.69
2019-05-21T22:47:35.500Z,14.73
2019-05-21T22:50:09.274Z,14.69
2019-05-21T22:52:41.235Z,14.65
2019-05-21T22:55:13.412Z,14.66
2019-05-21T22:57:45.533Z,14.64
2019-05-21T23:00:17.900Z,14.63
2019-05-21T23:02:49.890Z,14.58
2019-05-21T23:05:23.117Z,14.62
2019-05-21T23:07:55.671Z,14.58
2019-05-21T23:10:28.061Z,14.58
2019-05-21T23:13:00.746Z,14.57
2019-05-21T23:15:32.710Z,14.60
2019-05-21T23:18:05.346Z,14.62
2019-05-21T23:20:38.221Z,14.58
2019-05-21T23:23:10.345Z,14.56
2019-05-21T23:25:43.662Z,14.54
2019-05-21T23:28:16.107Z,14.53
2019-05-21T23:30:48.862Z,14.53
2019-05-21T23:33:21.577Z,14.53
2019-05-21T23:35:53.837Z,14.51
2019-05-21T23:38:26.275Z,14.51
2019-05-21T23:40:58.285Z,14.54
2019-05-21T23:43:31.016Z,14.61
2019-05-21T23:46:03.090Z,14.64
2019-05-21T23:48:35.631Z,14.70
2019-05-21T23:51:07.608Z,14.74
2019-05-21T23:53:40.813Z,14.80
2019-05-21T23:56:13.163Z,14.82
2019-05-21T23:58:47.976Z,14.85
